createdAt,value
2019-03-29T00:01:09.901Z,6.40
2019-03-29T00:03:40.830Z,6.30
2019-03-29T00:06:11.973Z,6.30
2019-03-29T00:08:42.913Z,6.30
2019-03-29T00:11:13.931Z,6.30
2019-03-29T00:13:44.993Z,6.30
2019-03-29T00:16:15.934Z,6.20
2019-03-29T00:18:46.907Z,6.20
2019-03-29T00:21:17.890Z,6.20
2019-03-29T00:23:49.142Z,6.20
2019-03-29T00:26:20.202Z,6.20
2019-03-29T00:28:51.226Z,6.20
2019-03-29T00:31:22.194Z,6.10
2019-03-29T00:33:53.129Z,6.10
2019-03-29T00:36:24.069Z,6.10
2019-03-29T00:38:55.076Z,6.10
2019-03-29T00:41:25.938Z,6.10
2019-03-29T00:43:56.880Z,6.10
2019-03-29T00:46:28.030Z,6.10
2019-03-29T00:48:59.113Z,6.10
2019-03-29T00:51:30.113Z,6.10
2019-03-29T00:54:01.937Z,6.00
2019-03-29T00:56:33.222Z,6.00
2019-03-29T00:59:04.149Z,6.10
2019-03-29T01:01:35.159Z,6.10
2019-03-29T01:04:06.139Z,6.10
2019-03-29T01:06:37.381Z,6.20
2019-03-29T01:09:08.940Z,6.30
2019-03-29T01:11:40.903Z,6.40
2019-03-29T01:14:11.944Z,6.50
2019-03-29T01:16:42.873Z,6.60
2019-03-29T01:19:13.810Z,6.60
2019-03-29T01:21:44.919Z,6.60
2019-03-29T01:24:15.982Z,6.60
2019-03-29T01:26:47.137Z,6.60
2019-03-29T01:29:18.145Z,6.50
2019-03-29T01:31:49.118Z,6.40
2019-03-29T01:34:20.183Z,6.40
2019-03-29T01:36:51.102Z,6.40
2019-03-29T01:39:21.936Z,6.30
2019-03-29T01:41:53.096Z,6.30
2019-03-29T01:44:24.237Z,6.20
2019-03-29T01:46:55.192Z,6.10
2019-03-29T01:49:26.179Z,6.10
2019-03-29T01:51:57.211Z,6.10
2019-03-29T01:54:28.082Z,6.10
2019-03-29T01:56:59.033Z,6.00
2019-03-29T01:59:30.030Z,6.00
2019-03-29T02:02:01.010Z,6.00
2019-03-29T02:04:31.958Z,6.00
2019-03-29T02:07:02.980Z,6.00
2019-03-29T02:09:34.002Z,5.90
2019-03-29T02:12:04.974Z,6.00
2019-03-29T02:14:35.903Z,6.00
2019-03-29T02:17:06.839Z,6.10
2019-03-29T02:19:37.789Z,6.10
2019-03-29T02:22:09.072Z,6.20
2019-03-29T02:24:40.203Z,6.40
2019-03-29T02:27:11.111Z,6.50
2019-03-29T02:29:42.124Z,6.50
2019-03-29T02:32:13.103Z,6.60
2019-03-29T02:34:44.253Z,6.60
2019-03-29T02:37:15.351Z,6.70
2019-03-29T02:39:46.223Z,6.80
2019-03-29T02:42:17.151Z,6.80
2019-03-29T02:44:48.109Z,6.90
2019-03-29T02:47:19.063Z,7.00
2019-03-29T02:49:50.047Z,7.00
2019-03-29T02:52:21.020Z,7.10
2019-03-29T02:54:52.018Z,7.20
2019-03-29T02:57:22.891Z,7.20
2019-03-29T02:59:53.903Z,7.20
2019-03-29T03:02:26.611Z,7.20
2019-03-29T03:04:57.450Z,7.20
2019-03-29T03:07:28.867Z,7.10
2019-03-29T03:09:59.735Z,7.00
2019-03-29T03:12:30.714Z,7.00
2019-03-29T03:15:01.829Z,6.90
2019-03-29T03:17:32.830Z,6.90
2019-03-29T03:20:03.708Z,6.80
2019-03-29T03:22:34.632Z,6.80
2019-03-29T03:25:06.000Z,6.70
2019-03-29T03:27:37.174Z,6.70
2019-03-29T03:30:09.556Z,6.60
2019-03-29T03:32:40.557Z,6.50
2019-03-29T03:35:12.487Z,6.50
2019-03-29T03:37:43.446Z,6.40
2019-03-29T03:40:14.794Z,6.40
2019-03-29T03:42:45.740Z,6.30
2019-03-29T03:45:16.855Z,6.20
2019-03-29T03:47:47.781Z,6.10
2019-03-29T03:50:46.295Z,6.10
2019-03-29T03:53:17.249Z,6.00
2019-03-29T03:55:48.393Z,5.90
2019-03-29T03:58:21.043Z,5.90
2019-03-29T04:00:55.087Z,5.90
2019-03-29T04:03:26.742Z,5.80
2019-03-29T04:05:58.208Z,5.80
2019-03-29T04:08:29.527Z,5.80
2019-03-29T04:11:00.680Z,5.80
2019-03-29T04:13:31.607Z,5.70
2019-03-29T04:16:02.562Z,5.70
2019-03-29T04:18:33.568Z,5.70
2019-03-29T04:21:04.454Z,5.60
2019-03-29T04:23:35.571Z,5.60
2019-03-29T04:26:06.524Z,5.60
2019-03-29T04:28:37.522Z,5.50
2019-03-29T04:31:08.424Z,5.50
2019-03-29T04:33:39.443Z,5.50
2019-03-29T04:36:10.381Z,5.50
2019-03-29T04:38:41.202Z,5.50
2019-03-29T04:41:12.218Z,5.40
2019-03-29T04:43:43.181Z,5.40
2019-03-29T04:46:14.152Z,5.40
2019-03-29T04:48:45.064Z,5.30
2019-03-29T04:51:15.907Z,5.20
2019-03-29T04:53:46.914Z,5.10
2019-03-29T04:56:17.777Z,5.10
2019-03-29T04:58:48.730Z,5.00
2019-03-29T05:01:19.930Z,5.00
2019-03-29T05:03:50.874Z,4.90
2019-03-29T05:06:21.745Z,4.90
2019-03-29T05:08:52.686Z,4.80
2019-03-29T05:11:23.614Z,4.80
2019-03-29T05:13:54.461Z,4.80
2019-03-29T05:16:25.466Z,4.70
2019-03-29T05:18:56.330Z,4.70
2019-03-29T05:21:27.270Z,4.70
2019-03-29T05:23:58.422Z,4.70
2019-03-29T05:26:29.430Z,4.60
2019-03-29T05:29:00.301Z,4.60
2019-03-29T05:31:31.229Z,4.60
2019-03-29T05:34:02.384Z,4.60
2019-03-29T05:36:33.387Z,4.60
2019-03-29T05:39:04.825Z,4.60
2019-03-29T05:41:35.804Z,4.60
2019-03-29T05:44:06.821Z,4.60
2019-03-29T05:46:37.836Z,4.60
2019-03-29T05:49:08.868Z,4.60
2019-03-29T05:51:39.881Z,4.60
2019-03-29T05:54:10.881Z,4.60
2019-03-29T05:56:41.761Z,4.60
2019-03-29T05:59:12.684Z,4.60
2019-03-29T06:01:43.628Z,4.60
2019-03-29T06:04:14.461Z,4.50
2019-03-29T06:06:45.526Z,4.50
2019-03-29T06:09:16.617Z,4.40
2019-03-29T06:11:47.801Z,4.40
2019-03-29T06:14:18.794Z,4.40
2019-03-29T06:16:49.678Z,4.40
2019-03-29T06:19:20.722Z,4.40
2019-03-29T06:21:51.648Z,4.50
2019-03-29T06:24:22.595Z,4.50
2019-03-29T06:26:53.597Z,4.60
2019-03-29T06:29:24.466Z,4.70
2019-03-29T06:31:55.401Z,4.80
2019-03-29T06:34:26.342Z,4.90
2019-03-29T06:36:58.998Z,5.00
2019-03-29T06:39:30.805Z,5.20
2019-03-29T06:42:02.026Z,5.30
2019-03-29T06:44:32.966Z,5.40
2019-03-29T06:47:03.915Z,5.50
2019-03-29T06:49:35.022Z,5.60
2019-03-29T06:52:05.984Z,5.80
2019-03-29T06:54:36.935Z,6.00
2019-03-29T06:57:07.870Z,6.30
2019-03-29T06:59:38.802Z,6.50
2019-03-29T07:02:09.814Z,6.70
2019-03-29T07:04:40.682Z,7.10
2019-03-29T07:07:11.625Z,7.40
2019-03-29T07:09:42.613Z,7.80
2019-03-29T07:12:13.712Z,8.10
2019-03-29T07:14:44.642Z,8.50
2019-03-29T07:17:15.702Z,8.90
2019-03-29T07:19:46.627Z,9.30
2019-03-29T07:22:18.533Z,9.70
2019-03-29T07:24:49.702Z,10.10
2019-03-29T07:27:20.642Z,10.70
2019-03-29T07:29:51.515Z,11.30
2019-03-29T07:32:22.762Z,11.70
2019-03-29T07:34:53.770Z,12.20
2019-03-29T07:37:24.730Z,12.60
2019-03-29T07:39:55.783Z,13.00
2019-03-29T07:42:26.740Z,13.50
2019-03-29T07:44:57.724Z,14.00
2019-03-29T07:47:28.601Z,14.70
2019-03-29T07:49:59.565Z,15.10
2019-03-29T07:52:31.098Z,15.60
2019-03-29T07:55:02.033Z,15.80
2019-03-29T07:57:32.963Z,16.20
2019-03-29T08:00:04.105Z,16.50
2019-03-29T08:02:35.213Z,16.80
2019-03-29T08:05:06.302Z,16.60
2019-03-29T08:07:37.228Z,17.00
2019-03-29T08:10:08.280Z,17.40
2019-03-29T08:12:40.695Z,18.00
2019-03-29T08:15:11.797Z,18.20
2019-03-29T08:17:42.727Z,18.20
2019-03-29T08:20:38.255Z,18.50
2019-03-29T08:22:46.355Z,18.80
2019-03-29T08:25:17.386Z,18.70
2019-03-29T08:27:48.335Z,18.50
2019-03-29T08:30:19.392Z,18.70
2019-03-29T08:32:50.521Z,18.90
2019-03-29T08:35:21.458Z,19.00
2019-03-29T08:37:52.466Z,19.30
2019-03-29T08:40:23.336Z,19.20
2019-03-29T08:42:54.266Z,19.40
2019-03-29T08:45:25.244Z,20.30
2019-03-29T08:47:56.153Z,20.60
2019-03-29T08:50:27.163Z,22.10
2019-03-29T08:52:58.122Z,23.30
2019-03-29T08:55:29.063Z,23.50
2019-03-29T08:58:00.002Z,23.90
2019-03-29T09:00:34.442Z,23.10
2019-03-29T09:03:05.983Z,23.10
2019-03-29T09:05:39.298Z,22.80
2019-03-29T09:08:10.309Z,22.30
2019-03-29T09:10:41.330Z,23.20
2019-03-29T09:13:12.610Z,22.80
2019-03-29T09:15:43.582Z,23.50
2019-03-29T09:18:14.553Z,24.20
2019-03-29T09:20:45.425Z,24.80
2019-03-29T09:23:16.364Z,25.60
2019-03-29T09:25:47.407Z,26.00
2019-03-29T09:28:18.346Z,25.90
2019-03-29T09:30:49.352Z,26.40
2019-03-29T09:33:20.326Z,26.50
2019-03-29T09:35:51.368Z,25.80
2019-03-29T09:38:22.300Z,25.60
2019-03-29T09:40:58.881Z,25.80
2019-03-29T09:43:26.796Z,25.20
2019-03-29T09:45:57.879Z,24.90
2019-03-29T09:48:28.870Z,25.40
2019-03-29T09:51:00.073Z,24.90
2019-03-29T09:53:31.225Z,25.10
2019-03-29T09:56:02.250Z,25.30
2019-03-29T09:58:33.197Z,26.40
2019-03-29T10:01:04.238Z,27.40
2019-03-29T10:03:36.201Z,28.60
2019-03-29T10:06:07.143Z,28.80
2019-03-29T10:08:38.761Z,28.20
2019-03-29T10:11:09.621Z,29.00
2019-03-29T10:13:40.640Z,29.40
2019-03-29T10:16:11.502Z,29.60
2019-03-29T10:18:42.494Z,30.30
2019-03-29T10:21:16.889Z,30.00
2019-03-29T10:23:46.029Z,28.00
2019-03-29T10:26:16.910Z,28.80
2019-03-29T10:28:47.845Z,29.30
2019-03-29T10:31:31.501Z,29.80
2019-03-29T10:33:51.631Z,30.60
2019-03-29T10:36:22.504Z,30.90
2019-03-29T10:38:53.465Z,31.20
2019-03-29T10:41:26.492Z,32.00
2019-03-29T10:43:57.357Z,32.10
2019-03-29T10:46:28.297Z,32.60
2019-03-29T10:48:59.237Z,32.80
2019-03-29T10:51:30.210Z,33.20
2019-03-29T10:54:01.193Z,33.10
2019-03-29T10:56:34.435Z,32.00
2019-03-29T10:59:04.733Z,32.30
2019-03-29T11:01:35.775Z,32.70
2019-03-29T11:04:06.785Z,30.20
2019-03-29T11:06:37.767Z,30.70
2019-03-29T11:09:09.734Z,31.60
2019-03-29T11:11:45.694Z,32.60
2019-03-29T11:14:18.479Z,33.70
2019-03-29T11:16:49.406Z,34.30
2019-03-29T11:19:20.347Z,35.10
2019-03-29T11:21:51.345Z,35.00
2019-03-29T11:24:22.290Z,35.50
2019-03-29T11:26:53.164Z,36.40
2019-03-29T11:29:24.309Z,35.80
2019-03-29T11:31:56.257Z,35.20
2019-03-29T11:34:27.198Z,34.60
2019-03-29T11:36:58.137Z,34.80
2019-03-29T11:39:29.084Z,35.80
2019-03-29T11:42:03.374Z,36.20
2019-03-29T11:44:32.599Z,36.50
2019-03-29T11:47:03.528Z,37.00
2019-03-29T11:49:34.479Z,37.20
2019-03-29T11:52:05.631Z,37.40
2019-03-29T11:54:36.665Z,37.20
2019-03-29T11:57:07.603Z,37.10
2019-03-29T11:59:40.154Z,36.60
2019-03-29T12:02:30.294Z,34.80
2019-03-29T12:04:49.521Z,35.10
2019-03-29T12:07:20.681Z,35.40
2019-03-29T12:09:51.680Z,34.90
2019-03-29T12:12:34.807Z,35.20
2019-03-29T12:15:06.588Z,35.60
2019-03-29T12:17:37.601Z,34.50
2019-03-29T12:20:08.980Z,34.70
2019-03-29T12:22:39.817Z,34.90
2019-03-29T12:25:12.449Z,35.80
2019-03-29T12:27:43.346Z,36.10
2019-03-29T12:30:30.473Z,36.60
2019-03-29T12:32:47.372Z,35.60
2019-03-29T12:35:18.301Z,36.40
2019-03-29T12:37:49.309Z,37.10
2019-03-29T12:40:20.428Z,36.70
2019-03-29T12:42:51.428Z,36.40
2019-03-29T12:45:23.453Z,36.40
2019-03-29T12:47:54.338Z,36.20
2019-03-29T12:50:25.294Z,35.80
2019-03-29T12:52:56.334Z,34.80
2019-03-29T12:55:28.645Z,34.70
2019-03-29T12:57:59.513Z,34.80
2019-03-29T13:00:30.733Z,35.60
2019-03-29T13:03:01.705Z,35.50
2019-03-29T13:05:32.650Z,35.60
2019-03-29T13:08:03.733Z,36.80
2019-03-29T13:10:35.030Z,37.00
2019-03-29T13:13:06.173Z,37.40
2019-03-29T13:15:37.316Z,37.00
2019-03-29T13:18:08.258Z,36.50
2019-03-29T13:20:39.270Z,34.20
2019-03-29T13:23:10.238Z,34.50
2019-03-29T13:25:41.394Z,34.00
2019-03-29T13:28:12.539Z,33.40
2019-03-29T13:30:43.464Z,32.20
2019-03-29T13:33:14.414Z,32.50
2019-03-29T13:35:45.363Z,32.50
2019-03-29T13:38:16.456Z,32.80
2019-03-29T13:40:47.321Z,34.00
2019-03-29T13:43:18.271Z,34.50
2019-03-29T13:45:49.418Z,33.60
2019-03-29T13:48:20.423Z,32.60
2019-03-29T13:50:51.203Z,31.70
2019-03-29T13:53:22.300Z,31.40
2019-03-29T13:55:54.796Z,31.40
2019-03-29T13:58:25.784Z,32.40
2019-03-29T14:00:56.776Z,32.20
2019-03-29T14:03:27.718Z,31.60
2019-03-29T14:05:58.657Z,32.30
2019-03-29T14:08:29.594Z,32.30
2019-03-29T14:11:00.702Z,32.80
2019-03-29T14:13:31.677Z,33.60
2019-03-29T14:16:02.858Z,33.10
2019-03-29T14:18:36.836Z,32.70
2019-03-29T14:21:07.846Z,32.30
2019-03-29T14:23:38.810Z,33.10
2019-03-29T14:26:09.970Z,33.70
2019-03-29T14:28:40.971Z,34.30
2019-03-29T14:31:11.895Z,34.80
2019-03-29T14:33:42.774Z,34.70
2019-03-29T14:36:13.713Z,35.10
2019-03-29T14:38:44.549Z,34.20
2019-03-29T14:41:15.560Z,33.00
2019-03-29T14:43:46.427Z,32.70
2019-03-29T14:46:17.441Z,32.70
2019-03-29T14:48:48.407Z,31.80
2019-03-29T14:51:19.417Z,31.40
2019-03-29T14:53:50.467Z,31.10
2019-03-29T14:56:21.327Z,30.20
2019-03-29T14:58:52.265Z,30.30
2019-03-29T15:01:23.425Z,30.70
2019-03-29T15:03:54.667Z,30.30
2019-03-29T15:06:25.592Z,31.10
2019-03-29T15:08:56.809Z,31.70
2019-03-29T15:11:27.782Z,32.10
2019-03-29T15:13:58.937Z,32.10
2019-03-29T15:16:29.938Z,32.00
2019-03-29T15:19:00.802Z,32.10
2019-03-29T15:21:31.759Z,32.40
2019-03-29T15:24:02.896Z,31.90
2019-03-29T15:26:33.893Z,32.10
2019-03-29T15:29:04.887Z,31.90
2019-03-29T15:31:35.806Z,31.40
2019-03-29T15:34:07.077Z,30.70
2019-03-29T15:36:37.989Z,30.50
2019-03-29T15:39:10.066Z,30.80
2019-03-29T15:41:41.065Z,30.80
2019-03-29T15:44:12.238Z,30.60
2019-03-29T15:46:43.176Z,30.30
2019-03-29T15:49:14.024Z,30.10
2019-03-29T15:51:45.018Z,29.50
2019-03-29T15:54:15.917Z,29.90
2019-03-29T15:56:46.976Z,29.50
2019-03-29T15:59:17.973Z,28.70
2019-03-29T16:01:49.118Z,28.10
2019-03-29T16:04:20.113Z,28.30
2019-03-29T16:06:50.997Z,28.50
2019-03-29T16:09:21.937Z,28.70
2019-03-29T16:11:52.952Z,28.60
2019-03-29T16:14:23.802Z,28.60
2019-03-29T16:16:54.754Z,28.00
2019-03-29T16:19:25.548Z,28.00
2019-03-29T16:21:56.529Z,28.00
2019-03-29T16:24:27.541Z,28.00
2019-03-29T16:26:58.416Z,27.90
2019-03-29T16:29:29.344Z,27.80
2019-03-29T16:32:00.285Z,27.70
2019-03-29T16:34:31.221Z,26.90
2019-03-29T16:37:02.289Z,26.40
2019-03-29T16:39:33.205Z,26.20
2019-03-29T16:42:04.152Z,25.80
2019-03-29T16:44:35.135Z,26.00
2019-03-29T16:47:06.242Z,25.60
2019-03-29T16:49:37.160Z,25.40
2019-03-29T16:52:08.201Z,25.00
2019-03-29T16:54:39.466Z,24.90
2019-03-29T16:57:10.459Z,24.70
2019-03-29T16:59:41.328Z,23.40
2019-03-29T17:02:12.269Z,23.20
2019-03-29T17:04:43.210Z,23.00
2019-03-29T17:07:14.098Z,22.80
2019-03-29T17:09:45.049Z,22.70
2019-03-29T17:12:16.025Z,22.50
2019-03-29T17:14:46.976Z,22.30
2019-03-29T17:17:18.128Z,21.90
2019-03-29T17:19:49.112Z,21.20
2019-03-29T17:22:20.089Z,20.70
2019-03-29T17:24:56.910Z,20.10
2019-03-29T17:27:23.602Z,19.20
2019-03-29T17:29:54.553Z,18.40
2019-03-29T17:32:25.858Z,17.70
2019-03-29T17:34:56.732Z,17.10
2019-03-29T17:37:27.676Z,16.60
2019-03-29T17:39:58.668Z,16.10
2019-03-29T17:42:29.717Z,15.70
2019-03-29T17:45:00.693Z,15.50
2019-03-29T17:47:31.635Z,15.20
2019-03-29T17:50:02.782Z,14.90
2019-03-29T17:52:33.870Z,14.70
2019-03-29T17:55:04.969Z,14.50
2019-03-29T17:57:35.927Z,14.30
2019-03-29T18:00:09.189Z,14.10
2019-03-29T18:02:40.139Z,13.90
2019-03-29T18:05:11.272Z,13.70
2019-03-29T18:07:42.221Z,13.60
2019-03-29T18:10:13.416Z,13.40
2019-03-29T18:12:44.399Z,13.20
2019-03-29T18:15:15.948Z,13.00
2019-03-29T18:17:47.321Z,12.90
2019-03-29T18:20:19.319Z,12.70
2019-03-29T18:22:50.312Z,12.60
2019-03-29T18:25:21.242Z,12.40
2019-03-29T18:27:52.282Z,12.20
2019-03-29T18:30:39.820Z,12.00
2019-03-29T18:33:12.080Z,11.80
2019-03-29T18:35:43.121Z,11.50
2019-03-29T18:38:14.056Z,11.40
2019-03-29T18:40:45.078Z,11.40
2019-03-29T18:43:16.114Z,11.30
2019-03-29T18:45:47.117Z,11.20
2019-03-29T18:48:18.125Z,11.10
2019-03-29T18:50:49.072Z,11.10
2019-03-29T18:53:20.074Z,10.90
2019-03-29T18:55:50.977Z,10.80
2019-03-29T18:58:21.933Z,10.70
2019-03-29T19:00:52.818Z,10.70
2019-03-29T19:03:23.757Z,10.60
2019-03-29T19:05:54.769Z,10.50
2019-03-29T19:08:25.634Z,10.40
2019-03-29T19:10:56.633Z,10.40
2019-03-29T19:13:27.515Z,10.30
2019-03-29T19:15:58.537Z,10.30
2019-03-29T19:18:30.325Z,10.20
2019-03-29T19:21:01.326Z,10.10
2019-03-29T19:23:32.293Z,10.10
2019-03-29T19:26:03.451Z,10.10
2019-03-29T19:28:34.458Z,10.10
2019-03-29T19:31:05.416Z,10.00
2019-03-29T19:33:36.362Z,10.00
2019-03-29T19:36:07.292Z,9.90
2019-03-29T19:38:38.233Z,9.90
2019-03-29T19:41:09.253Z,9.80
2019-03-29T19:43:40.151Z,9.70
2019-03-29T19:46:11.055Z,9.60
2019-03-29T19:48:41.990Z,9.60
2019-03-29T19:51:12.929Z,9.60
2019-03-29T19:53:44.039Z,9.60
2019-03-29T19:56:15.000Z,9.50
2019-03-29T19:58:45.991Z,9.50
2019-03-29T20:01:16.942Z,9.50
2019-03-29T20:03:47.850Z,9.50
2019-03-29T20:06:18.865Z,9.50
2019-03-29T20:08:49.831Z,9.40
2019-03-29T20:11:20.759Z,9.40
2019-03-29T20:13:51.753Z,9.40
2019-03-29T20:16:22.697Z,9.30
2019-03-29T20:18:54.908Z,9.30
2019-03-29T20:21:25.832Z,9.20
2019-03-29T20:23:56.772Z,9.10
2019-03-29T20:26:27.722Z,9.10
2019-03-29T20:28:58.548Z,9.10
2019-03-29T20:31:29.664Z,9.10
2019-03-29T20:34:00.583Z,9.10
2019-03-29T20:36:31.688Z,9.00
2019-03-29T20:39:02.793Z,9.00
2019-03-29T20:41:33.767Z,8.90
2019-03-29T20:44:04.809Z,8.80
2019-03-29T20:46:35.769Z,8.80
2019-03-29T20:49:06.687Z,8.80
2019-03-29T20:51:37.684Z,8.70
2019-03-29T20:54:08.567Z,8.70
2019-03-29T20:56:39.569Z,8.60
2019-03-29T20:59:10.445Z,8.60
2019-03-29T21:01:41.445Z,8.60
2019-03-29T21:04:12.320Z,8.60
2019-03-29T21:06:43.258Z,8.60
2019-03-29T21:09:14.301Z,8.60
2019-03-29T21:11:45.310Z,8.50
2019-03-29T21:14:16.207Z,8.50
2019-03-29T21:16:48.552Z,8.40
2019-03-29T21:19:19.580Z,8.40
2019-03-29T21:21:50.531Z,8.30
2019-03-29T21:24:21.523Z,8.30
2019-03-29T21:26:52.408Z,8.30
2019-03-29T21:29:23.350Z,8.30
2019-03-29T21:31:54.276Z,8.20
2019-03-29T21:34:25.113Z,8.20
2019-03-29T21:36:56.128Z,8.20
2019-03-29T21:39:27.001Z,8.20
2019-03-29T21:41:57.929Z,8.20
2019-03-29T21:44:30.301Z,8.20
2019-03-29T21:47:01.241Z,8.10
2019-03-29T21:49:32.343Z,8.10
2019-03-29T21:52:03.221Z,8.10
2019-03-29T21:54:34.160Z,8.10
2019-03-29T21:57:05.137Z,8.10
2019-03-29T21:59:36.074Z,8.00
2019-03-29T22:02:07.147Z,8.00
2019-03-29T22:04:39.052Z,8.00
2019-03-29T22:07:10.053Z,7.90
2019-03-29T22:09:40.924Z,7.90
2019-03-29T22:12:11.878Z,7.90
2019-03-29T22:14:42.800Z,7.90
2019-03-29T22:17:13.818Z,7.90
2019-03-29T22:19:44.851Z,7.90
2019-03-29T22:22:15.861Z,7.90
2019-03-29T22:24:46.656Z,7.90
2019-03-29T22:27:17.672Z,7.90
2019-03-29T22:29:48.946Z,7.90
2019-03-29T22:32:19.893Z,7.90
2019-03-29T22:34:50.888Z,7.80
2019-03-29T22:37:23.266Z,7.80
2019-03-29T22:39:56.080Z,7.70
2019-03-29T22:42:27.027Z,7.60
2019-03-29T22:44:58.028Z,7.50
2019-03-29T22:47:28.893Z,7.50
2019-03-29T22:50:00.053Z,7.40
2019-03-29T22:52:31.153Z,7.40
2019-03-29T22:55:02.072Z,7.40
2019-03-29T22:57:32.988Z,7.30
2019-03-29T23:00:04.058Z,7.30
2019-03-29T23:02:35.113Z,7.30
2019-03-29T23:05:06.201Z,7.20
2019-03-29T23:07:37.126Z,7.20
2019-03-29T23:10:08.176Z,7.20
2019-03-29T23:12:39.188Z,7.20
2019-03-29T23:15:10.459Z,7.20
2019-03-29T23:17:41.508Z,7.20
2019-03-29T23:20:13.060Z,7.20
2019-03-29T23:22:44.089Z,7.20
2019-03-29T23:25:15.250Z,7.20
2019-03-29T23:27:46.185Z,7.10
2019-03-29T23:30:17.698Z,7.10
2019-03-29T23:32:48.664Z,7.10
2019-03-29T23:35:19.607Z,7.00
2019-03-29T23:37:50.549Z,7.00
2019-03-29T23:40:21.489Z,7.00
2019-03-29T23:42:52.496Z,7.00
2019-03-29T23:45:23.361Z,7.00
2019-03-29T23:47:54.312Z,6.90
2019-03-29T23:50:25.241Z,6.90
2019-03-29T23:52:56.177Z,6.90
2019-03-29T23:55:27.186Z,6.90
2019-03-29T23:57:58.167Z,6.80
